sensor_id;sensor_type;location;lat;lon;timestamp;pressure;altitude;pressure_sealevel;temperature;humidity
57114;BME280;42994;51.606;9.988;2023-05-02T00:00:38;99057.00;;;11.22;100.00
57114;BME280;42994;51.606;9.988;2023-05-02T00:03:04;99051.44;;;11.24;100.00
57114;BME280;42994;51.606;9.988;2023-05-02T00:05:31;99051.81;;;11.14;100.00
57114;BME280;42994;51.606;9.988;2023-05-02T00:07:59;99057.16;;;11.14;100.00
57114;BME280;42994;51.606;9.988;2023-05-02T00:10:26;99049.75;;;11.16;100.00
57114;BME280;42994;51.606;9.988;2023-05-02T00:12:52;99067.28;;;11.12;100.00
57114;BME280;42994;51.606;9.988;2023-05-02T00:15:19;99062.16;;;11.17;100.00
57114;BME280;42994;51.606;9.988;2023-05-02T00:17:46;99055.25;;;11.08;100.00
57114;BME280;42994;51.606;9.988;2023-05-02T00:20:12;99059.22;;;11.12;100.00
57114;BME280;42994;51.606;9.988;2023-05-02T00:22:39;99054.66;;;11.12;100.00
57114;BME280;42994;51.606;9.988;2023-05-02T00:25:08;99059.66;;;11.15;100.00
57114;BME280;42994;51.606;9.988;2023-05-02T00:27:40;99060.59;;;11.08;100.00
57114;BME280;42994;51.606;9.988;2023-05-02T00:30:08;99059.59;;;11.09;100.00
57114;BME280;42994;51.606;9.988;2023-05-02T00:32:35;99063.09;;;11.09;100.00
57114;BME280;42994;51.606;9.988;2023-05-02T00:35:02;99066.22;;;11.13;100.00
57114;BME280;42994;51.606;9.988;2023-05-02T00:37:29;99057.91;;;11.08;100.00
57114;BME280;42994;51.606;9.988;2023-05-02T00:39:57;99053.84;;;11.12;100.00
57114;BME280;42994;51.606;9.988;2023-05-02T00:42:25;99057.41;;;11.19;100.00
57114;BME280;42994;51.606;9.988;2023-05-02T00:44:53;99064.19;;;11.15;100.00
57114;BME280;42994;51.606;9.988;2023-05-02T00:47:20;99068.16;;;11.19;100.00
57114;BME280;42994;51.606;9.988;2023-05-02T00:49:46;99060.28;;;11.18;100.00
57114;BME280;42994;51.606;9.988;2023-05-02T00:52:14;99070.69;;;11.27;100.00
57114;BME280;42994;51.606;9.988;2023-05-02T00:54:42;99071.31;;;11.29;100.00
57114;BME280;42994;51.606;9.988;2023-05-02T00:57:09;99076.28;;;11.32;100.00
57114;BME280;42994;51.606;9.988;2023-05-02T00:59:37;99074.00;;;11.29;100.00
57114;BME280;42994;51.606;9.988;2023-05-02T01:02:13;99074.59;;;11.25;100.00
57114;BME280;42994;51.606;9.988;2023-05-02T01:04:52;99067.28;;;11.12;100.00
57114;BME280;42994;51.606;9.988;2023-05-02T01:07:34;99065.47;;;11.19;100.00
57114;BME280;42994;51.606;9.988;2023-05-02T01:10:11;99072.88;;;11.17;100.00
57114;BME280;42994;51.606;9.988;2023-05-02T01:12:41;99076.50;;;11.09;100.00
57114;BME280;42994;51.606;9.988;2023-05-02T01:15:13;99071.94;;;10.82;100.00
57114;BME280;42994;51.606;9.988;2023-05-02T01:17:43;99066.72;;;10.73;100.00
57114;BME280;42994;51.606;9.988;2023-05-02T01:20:13;99064.94;;;10.81;100.00
57114;BME280;42994;51.606;9.988;2023-05-02T01:22:41;99064.84;;;10.74;100.00
57114;BME280;42994;51.606;9.988;2023-05-02T01:25:18;99070.19;;;10.52;100.00
57114;BME280;42994;51.606;9.988;2023-05-02T01:27:52;99063.44;;;10.56;100.00
57114;BME280;42994;51.606;9.988;2023-05-02T01:30:26;99072.50;;;10.55;100.00
57114;BME280;42994;51.606;9.988;2023-05-02T01:32:54;99072.09;;;10.58;100.00
57114;BME280;42994;51.606;9.988;2023-05-02T01:35:23;99068.59;;;10.58;100.00
57114;BME280;42994;51.606;9.988;2023-05-02T01:37:53;99072.56;;;10.62;100.00
57114;BME280;42994;51.606;9.988;2023-05-02T01:40:22;99080.69;;;10.69;100.00
57114;BME280;42994;51.606;9.988;2023-05-02T01:42:50;99072.38;;;10.64;100.00
57114;BME280;42994;51.606;9.988;2023-05-02T01:45:20;99079.41;;;10.65;100.00
57114;BME280;42994;51.606;9.988;2023-05-02T01:47:49;99078.59;;;10.64;100.00
57114;BME280;42994;51.606;9.988;2023-05-02T01:50:20;99087.38;;;10.58;100.00
57114;BME280;42994;51.606;9.988;2023-05-02T01:52:50;99086.81;;;10.63;100.00
57114;BME280;42994;51.606;9.988;2023-05-02T01:55:18;99085.72;;;10.57;100.00
57114;BME280;42994;51.606;9.988;2023-05-02T01:57:46;99079.91;;;10.53;100.00
57114;BME280;42994;51.606;9.988;2023-05-02T02:00:16;99080.47;;;10.49;100.00
57114;BME280;42994;51.606;9.988;2023-05-02T02:02:45;99079.66;;;10.48;100.00
57114;BME280;42994;51.606;9.988;2023-05-02T02:05:15;99082.97;;;10.50;100.00
57114;BME280;42994;51.606;9.988;2023-05-02T02:07:42;99080.66;;;10.47;100.00
57114;BME280;42994;51.606;9.988;2023-05-02T02:10:09;99084.81;;;10.50;100.00
57114;BME280;42994;51.606;9.988;2023-05-02T02:12:39;99087.97;;;10.53;100.00
57114;BME280;42994;51.606;9.988;2023-05-02T02:15:11;99088.13;;;10.52;100.00
57114;BME280;42994;51.606;9.988;2023-05-02T02:17:42;99091.66;;;10.52;100.00
57114;BME280;42994;51.606;9.988;2023-05-02T02:20:10;99101.28;;;10.47;100.00
57114;BME280;42994;51.606;9.988;2023-05-02T02:22:40;99097.78;;;10.46;100.00
57114;BME280;42994;51.606;9.988;2023-05-02T02:25:11;99099.13;;;10.42;100.00
57114;BME280;42994;51.606;9.988;2023-05-02T02:27:39;99103.50;;;10.43;100.00
57114;BME280;42994;51.606;9.988;2023-05-02T02:30:07;99098.50;;;10.40;100.00
57114;BME280;42994;51.606;9.988;2023-05-02T02:32:34;99105.09;;;10.37;100.00
57114;BME280;42994;51.606;9.988;2023-05-02T02:35:01;99110.44;;;10.37;100.00
57114;BME280;42994;51.606;9.988;2023-05-02T02:37:30;99116.25;;;10.41;100.00
57114;BME280;42994;51.606;9.988;2023-05-02T02:40:03;99110.63;;;10.36;100.00
57114;BME280;42994;51.606;9.988;2023-05-02T02:42:35;99113.31;;;10.36;100.00
57114;BME280;42994;51.606;9.988;2023-05-02T02:45:13;99113.66;;;10.33;100.00
57114;BME280;42994;51.606;9.988;2023-05-02T02:47:45;99111.19;;;10.31;100.00
57114;BME280;42994;51.606;9.988;2023-05-02T02:50:16;99112.72;;;10.26;100.00
57114;BME280;42994;51.606;9.988;2023-05-02T02:52:47;99111.63;;;10.20;100.00
57114;BME280;42994;51.606;9.988;2023-05-02T02:55:23;99110.53;;;10.14;100.00
57114;BME280;42994;51.606;9.988;2023-05-02T02:57:58;99108.13;;;10.19;100.00
57114;BME280;42994;51.606;9.988;2023-05-02T03:00:26;99114.53;;;10.18;100.00
57114;BME280;42994;51.606;9.988;2023-05-02T03:02:53;99116.53;;;10.16;100.00
57114;BME280;42994;51.606;9.988;2023-05-02T03:05:21;99117.84;;;10.20;100.00
57114;BME280;42994;51.606;9.988;2023-05-02T03:07:48;99115.06;;;10.14;100.00
57114;BME280;42994;51.606;9.988;2023-05-02T03:10:15;99124.09;;;10.13;100.00
57114;BME280;42994;51.606;9.988;2023-05-02T03:12:44;99129.38;;;10.06;100.00
57114;BME280;42994;51.606;9.988;2023-05-02T03:15:26;99128.09;;;10.02;100.00
57114;BME280;42994;51.606;9.988;2023-05-02T03:17:58;99124.97;;;9.98;100.00
57114;BME280;42994;51.606;9.988;2023-05-02T03:20:25;99130.56;;;10.04;100.00
57114;BME280;42994;51.606;9.988;2023-05-02T03:22:52;99131.50;;;9.96;100.00
57114;BME280;42994;51.606;9.988;2023-05-02T03:25:19;99131.31;;;9.97;100.00
57114;BME280;42994;51.606;9.988;2023-05-02T03:27:49;99137.91;;;9.95;100.00
57114;BME280;42994;51.606;9.988;2023-05-02T03:30:18;99137.97;;;9.87;100.00
57114;BME280;42994;51.606;9.988;2023-05-02T03:32:45;99136.22;;;9.94;100.00
57114;BME280;42994;51.606;9.988;2023-05-02T03:35:12;99136.41;;;9.92;100.00
57114;BME280;42994;51.606;9.988;2023-05-02T03:37:42;99129.47;;;9.98;100.00
57114;BME280;42994;51.606;9.988;2023-05-02T03:40:10;99142.56;;;9.93;100.00
57114;BME280;42994;51.606;9.988;2023-05-02T03:42:37;99141.03;;;9.98;100.00
57114;BME280;42994;51.606;9.988;2023-05-02T03:45:14;99146.09;;;9.93;100.00
57114;BME280;42994;51.606;9.988;2023-05-02T03:47:42;99146.28;;;9.92;100.00
57114;BME280;42994;51.606;9.988;2023-05-02T03:50:10;99153.97;;;9.95;100.00
57114;BME280;42994;51.606;9.988;2023-05-02T03:52:37;99157.34;;;9.89;100.00
57114;BME280;42994;51.606;9.988;2023-05-02T03:55:05;99154.31;;;9.92;100.00
57114;BME280;42994;51.606;9.988;2023-05-02T03:57:32;99151.28;;;9.95;100.00
57114;BME280;42994;51.606;9.988;2023-05-02T04:00:00;99155.97;;;9.93;100.00
57114;BME280;42994;51.606;9.988;2023-05-02T04:02:38;99158.94;;;9.98;100.00
57114;BME280;42994;51.606;9.988;2023-05-02T04:05:09;99160.31;;;9.94;100.00
57114;BME280;42994;51.606;9.988;2023-05-02T04:07:37;99164.84;;;9.93;100.00
57114;BME280;42994;51.606;9.988;2023-05-02T04:10:06;99165.03;;;9.92;100.00
57114;BME280;42994;51.606;9.988;2023-05-02T04:12:41;99178.06;;;9.95;100.00
57114;BME280;42994;51.606;9.988;2023-05-02T04:15:10;99181.75;;;9.94;100.00
57114;BME280;42994;51.606;9.988;2023-05-02T04:17:39;99184.41;;;9.94;100.00
57114;BME280;42994;51.606;9.988;2023-05-02T04:20:10;99182.38;;;9.96;100.00
57114;BME280;42994;51.606;9.988;2023-05-02T04:22:41;99182.38;;;9.96;100.00
57114;BME280;42994;51.606;9.988;2023-05-02T04:25:08;99188.19;;;9.99;100.00
57114;BME280;42994;51.606;9.988;2023-05-02T04:27:38;99194.31;;;9.93;100.00
57114;BME280;42994;51.606;9.988;2023-05-02T04:30:09;99194.59;;;9.98;100.00
57114;BME280;42994;51.606;9.988;2023-05-02T04:32:36;99198.44;;;9.96;100.00
57114;BME280;42994;51.606;9.988;2023-05-02T04:35:06;99202.97;;;9.95;100.00
57114;BME280;42994;51.606;9.988;2023-05-02T04:37:35;99202.34;;;9.93;100.00
57114;BME280;42994;51.606;9.988;2023-05-02T04:40:03;99206.66;;;9.94;100.00
57114;BME280;42994;51.606;9.988;2023-05-02T04:42:30;99207.69;;;9.93;100.00
57114;BME280;42994;51.606;9.988;2023-05-02T04:45:09;99208.88;;;9.91;100.00
57114;BME280;42994;51.606;9.988;2023-05-02T04:47:36;99216.09;;;9.90;100.00
57114;BME280;42994;51.606;9.988;2023-05-02T04:50:06;99221.31;;;9.84;100.00
57114;BME280;42994;51.606;9.988;2023-05-02T04:52:34;99226.97;;;9.89;100.00
57114;BME280;42994;51.606;9.988;2023-05-02T04:55:01;99230.69;;;9.88;100.00
57114;BME280;42994;51.606;9.988;2023-05-02T04:57:28;99230.03;;;9.86;100.00
57114;BME280;42994;51.606;9.988;2023-05-02T04:59:57;99224.38;;;9.80;100.00
57114;BME280;42994;51.606;9.988;2023-05-02T05:02:25;99229.75;;;9.80;100.00
57114;BME280;42994;51.606;9.988;2023-05-02T05:04:53;99242.75;;;9.84;100.00
57114;BME280;42994;51.606;9.988;2023-05-02T05:07:22;99247.09;;;9.85;100.00
57114;BME280;42994;51.606;9.988;2023-05-02T05:09:51;99251.06;;;9.89;100.00
57114;BME280;42994;51.606;9.988;2023-05-02T05:12:20;99250.41;;;9.87;100.00
57114;BME280;42994;51.606;9.988;2023-05-02T05:14:47;99253.28;;;9.85;100.00
57114;BME280;42994;51.606;9.988;2023-05-02T05:17:15;99253.91;;;9.87;100.00
57114;BME280;42994;51.606;9.988;2023-05-02T05:19:42;99264.16;;;9.84;100.00
57114;BME280;42994;51.606;9.988;2023-05-02T05:22:08;99260.13;;;9.88;100.00
57114;BME280;42994;51.606;9.988;2023-05-02T05:24:37;99269.81;;;9.89;100.00
57114;BME280;42994;51.606;9.988;2023-05-02T05:27:05;99267.31;;;9.87;100.00
57114;BME280;42994;51.606;9.988;2023-05-02T05:29:32;99269.09;;;9.95;100.00
57114;BME280;42994;51.606;9.988;2023-05-02T05:31:58;99266.97;;;9.90;100.00
57114;BME280;42994;51.606;9.988;2023-05-02T05:34:26;99272.13;;;9.92;100.00
57114;BME280;42994;51.606;9.988;2023-05-02T05:36:57;99272.47;;;9.89;100.00
57114;BME280;42994;51.606;9.988;2023-05-02T05:39:27;99282.38;;;9.88;100.00
57114;BME280;42994;51.606;9.988;2023-05-02T05:41:56;99277.50;;;9.92;100.00
57114;BME280;42994;51.606;9.988;2023-05-02T05:44:23;99283.84;;;9.91;100.00
57114;BME280;42994;51.606;9.988;2023-05-02T05:46:50;99281.75;;;10.01;100.00
57114;BME280;42994;51.606;9.988;2023-05-02T05:49:19;99287.75;;;10.03;100.00
57114;BME280;42994;51.606;9.988;2023-05-02T05:51:46;99280.28;;;9.98;100.00
57114;BME280;42994;51.606;9.988;2023-05-02T05:54:15;99284.13;;;9.96;100.00
57114;BME280;42994;51.606;9.988;2023-05-02T05:56:43;99291.69;;;9.92;100.00
57114;BME280;42994;51.606;9.988;2023-05-02T05:59:15;99286.47;;;9.99;100.00
57114;BME280;42994;51.606;9.988;2023-05-02T06:01:41;99293.22;;;9.95;100.00
57114;BME280;42994;51.606;9.988;2023-05-02T06:04:09;99289.03;;;9.92;100.00
57114;BME280;42994;51.606;9.988;2023-05-02T06:06:40;99293.22;;;9.95;100.00
57114;BME280;42994;51.606;9.988;2023-05-02T06:09:07;99297.88;;;9.93;100.00
57114;BME280;42994;51.606;9.988;2023-05-02T06:11:35;99293.72;;;9.90;100.00
57114;BME280;42994;51.606;9.988;2023-05-02T06:14:02;99305.09;;;9.92;100.00
57114;BME280;42994;51.606;9.988;2023-05-02T06:16:31;99305.44;;;9.89;100.00
57114;BME280;42994;51.606;9.988;2023-05-02T06:18:58;99303.97;;;9.87;100.00
57114;BME280;42994;51.606;9.988;2023-05-02T06:21:24;99306.66;;;9.87;100.00
57114;BME280;42994;51.606;9.988;2023-05-02T06:23:51;99310.69;;;9.82;100.00
57114;BME280;42994;51.606;9.988;2023-05-02T06:26:18;99310.34;;;9.86;100.00
57114;BME280;42994;51.606;9.988;2023-05-02T06:28:44;99322.72;;;9.87;100.00
57114;BME280;42994;51.606;9.988;2023-05-02T06:31:11;99319.22;;;9.86;100.00
57114;BME280;42994;51.606;9.988;2023-05-02T06:33:39;99326.88;;;9.89;100.00
57114;BME280;42994;51.606;9.988;2023-05-02T06:36:05;99331.78;;;9.86;100.00
57114;BME280;42994;51.606;9.988;2023-05-02T06:38:32;99336.56;;;9.90;100.00
57114;BME280;42994;51.606;9.988;2023-05-02T06:40:59;99333.53;;;9.93;100.00
57114;BME280;42994;51.606;9.988;2023-05-02T06:43:25;99341.66;;;10.00;100.00
57114;BME280;42994;51.606;9.988;2023-05-02T06:45:52;99343.66;;;10.06;100.00
57114;BME280;42994;51.606;9.988;2023-05-02T06:48:20;99346.25;;;10.14;100.00
57114;BME280;42994;51.606;9.988;2023-05-02T06:50:50;99352.72;;;10.20;100.00
57114;BME280;42994;51.606;9.988;2023-05-02T06:53:17;99356.34;;;10.27;100.00
57114;BME280;42994;51.606;9.988;2023-05-02T06:55:44;99369.25;;;10.32;100.00
57114;BME280;42994;51.606;9.988;2023-05-02T06:58:11;99369.38;;;10.30;100.00
57114;BME280;42994;51.606;9.988;2023-05-02T07:00:38;99375.91;;;10.36;100.00
57114;BME280;42994;51.606;9.988;2023-05-02T07:03:05;99381.56;;;10.41;100.00
57114;BME280;42994;51.606;9.988;2023-05-02T07:05:31;99381.63;;;10.33;100.00
57114;BME280;42994;51.606;9.988;2023-05-02T07:08:00;99376.25;;;10.33;100.00
57114;BME280;42994;51.606;9.988;2023-05-02T07:10:27;99376.97;;;10.27;100.00
57114;BME280;42994;51.606;9.988;2023-05-02T07:12:53;99375.19;;;10.19;100.00
57114;BME280;42994;51.606;9.988;2023-05-02T07:15:20;99381.72;;;10.16;100.00
57114;BME280;42994;51.606;9.988;2023-05-02T07:17:47;99371.00;;;10.16;100.00
57114;BME280;42994;51.606;9.988;2023-05-02T07:20:14;99377.16;;;10.02;100.00
57114;BME280;42994;51.606;9.988;2023-05-02T07:22:41;99358.16;;;9.89;100.00
57114;BME280;42994;51.606;9.988;2023-05-02T07:25:10;99364.16;;;9.91;100.00
57114;BME280;42994;51.606;9.988;2023-05-02T07:27:36;99356.63;;;9.94;100.00
57114;BME280;42994;51.606;9.988;2023-05-02T07:30:04;99366.16;;;9.97;100.00
57114;BME280;42994;51.606;9.988;2023-05-02T07:32:31;99370.19;;;9.93;100.00
57114;BME280;42994;51.606;9.988;2023-05-02T07:34:58;99373.75;;;9.85;100.00
57114;BME280;42994;51.606;9.988;2023-05-02T07:37:24;99376.69;;;9.75;100.00
57114;BME280;42994;51.606;9.988;2023-05-02T07:39:51;99376.03;;;9.73;100.00
57114;BME280;42994;51.606;9.988;2023-05-02T07:42:19;99375.53;;;9.70;100.00
57114;BME280;42994;51.606;9.988;2023-05-02T07:44:46;99376.59;;;9.84;100.00
57114;BME280;42994;51.606;9.988;2023-05-02T07:47:13;99377.69;;;9.74;100.00
57114;BME280;42994;51.606;9.988;2023-05-02T07:49:39;99379.09;;;9.62;100.00
57114;BME280;42994;51.606;9.988;2023-05-02T07:52:06;99387.78;;;9.64;100.00
57114;BME280;42994;51.606;9.988;2023-05-02T07:54:32;99389.44;;;9.65;100.00
57114;BME280;42994;51.606;9.988;2023-05-02T07:57:00;99396.34;;;9.59;100.00
57114;BME280;42994;51.606;9.988;2023-05-02T07:59:30;99387.97;;;9.62;100.00
57114;BME280;42994;51.606;9.988;2023-05-02T08:01:56;99394.28;;;9.70;100.00
57114;BME280;42994;51.606;9.988;2023-05-02T08:04:23;99398.84;;;9.61;100.00
57114;BME280;42994;51.606;9.988;2023-05-02T08:06:50;99398.84;;;9.61;100.00
57114;BME280;42994;51.606;9.988;2023-05-02T08:09:17;99427.94;;;9.64;100.00
57114;BME280;42994;51.606;9.988;2023-05-02T08:11:43;99428.03;;;9.39;100.00
57114;BME280;42994;51.606;9.988;2023-05-02T08:14:10;99445.22;;;9.53;100.00
57114;BME280;42994;51.606;9.988;2023-05-02T08:16:38;99451.41;;;9.54;100.00
57114;BME280;42994;51.606;9.988;2023-05-02T08:19:05;99456.50;;;9.32;100.00
57114;BME280;42994;51.606;9.988;2023-05-02T08:21:32;99457.19;;;9.26;100.00
57114;BME280;42994;51.606;9.988;2023-05-02T08:23:59;99465.06;;;9.28;100.00
57114;BME280;42994;51.606;9.988;2023-05-02T08:26:26;99474.22;;;9.33;100.00
57114;BME280;42994;51.606;9.988;2023-05-02T08:28:54;99482.59;;;9.30;100.00
57114;BME280;42994;51.606;9.988;2023-05-02T08:31:20;99484.28;;;9.31;100.00
57114;BME280;42994;51.606;9.988;2023-05-02T08:33:48;99485.47;;;9.20;100.00
57114;BME280;42994;51.606;9.988;2023-05-02T08:36:16;99492.88;;;9.02;100.00
57114;BME280;42994;51.606;9.988;2023-05-02T08:38:44;99502.75;;;8.77;100.00
57114;BME280;42994;51.606;9.988;2023-05-02T08:41:23;99511.09;;;8.74;100.00
57114;BME280;42994;51.606;9.988;2023-05-02T08:43:49;99518.09;;;8.66;100.00
57114;BME280;42994;51.606;9.988;2023-05-02T08:46:16;99525.28;;;8.82;100.00
57114;BME280;42994;51.606;9.988;2023-05-02T08:48:45;99531.13;;;8.94;100.00
57114;BME280;42994;51.606;9.988;2023-05-02T08:51:15;99532.47;;;8.74;100.00
57114;BME280;42994;51.606;9.988;2023-05-02T08:53:43;99542.81;;;8.85;100.00
57114;BME280;42994;51.606;9.988;2023-05-02T08:56:11;99544.31;;;8.96;100.00
57114;BME280;42994;51.606;9.988;2023-05-02T08:58:39;99551.63;;;8.36;100.00
57114;BME280;42994;51.606;9.988;2023-05-02T09:01:09;99550.19;;;8.83;100.00
57114;BME280;42994;51.606;9.988;2023-05-02T09:03:39;99559.03;;;8.92;100.00
57114;BME280;42994;51.606;9.988;2023-05-02T09:06:09;99567.72;;;8.77;100.00
57114;BME280;42994;51.606;9.988;2023-05-02T09:08:39;99570.88;;;8.56;100.00
57114;BME280;42994;51.606;9.988;2023-05-02T09:11:07;99570.25;;;8.71;100.00
57114;BME280;42994;51.606;9.988;2023-05-02T09:13:35;99581.25;;;8.92;100.00
57114;BME280;42994;51.606;9.988;2023-05-02T09:16:03;99572.72;;;8.72;100.00
57114;BME280;42994;51.606;9.988;2023-05-02T09:18:32;99589.63;;;8.89;100.00
57114;BME280;42994;51.606;9.988;2023-05-02T09:20:59;99598.31;;;8.99;100.00
57114;BME280;42994;51.606;9.988;2023-05-02T09:23:33;99600.50;;;9.04;100.00
57114;BME280;42994;51.606;9.988;2023-05-02T09:26:09;99611.16;;;8.79;100.00
57114;BME280;42994;51.606;9.988;2023-05-02T09:28:38;99608.84;;;8.93;100.00
57114;BME280;42994;51.606;9.988;2023-05-02T09:31:06;99622.38;;;8.91;100.00
57114;BME280;42994;51.606;9.988;2023-05-02T09:33:33;99627.22;;;8.96;100.00
57114;BME280;42994;51.606;9.988;2023-05-02T09:35:59;99629.53;;;8.91;100.00
57114;BME280;42994;51.606;9.988;2023-05-02T09:38:26;99634.06;;;8.90;100.00
57114;BME280;42994;51.606;9.988;2023-05-02T09:40:53;99642.09;;;8.90;100.00
57114;BME280;42994;51.606;9.988;2023-05-02T09:43:22;99647.06;;;8.69;100.00
57114;BME280;42994;51.606;9.988;2023-05-02T09:45:56;99646.59;;;8.31;100.00
57114;BME280;42994;51.606;9.988;2023-05-02T09:48:23;99636.22;;;8.27;100.00
57114;BME280;42994;51.606;9.988;2023-05-02T09:50:50;99640.53;;;8.55;100.00
57114;BME280;42994;51.606;9.988;2023-05-02T09:53:16;99640.72;;;8.70;100.00
57114;BME280;42994;51.606;9.988;2023-05-02T09:55:43;99642.72;;;8.68;100.00
57114;BME280;42994;51.606;9.988;2023-05-02T09:58:19;99648.41;;;8.30;100.00
57114;BME280;42994;51.606;9.988;2023-05-02T10:00:48;99654.72;;;8.55;100.00
57114;BME280;42994;51.606;9.988;2023-05-02T10:03:17;99655.38;;;8.49;100.00
57114;BME280;42994;51.606;9.988;2023-05-02T10:05:45;99663.03;;;8.44;100.00
57114;BME280;42994;51.606;9.988;2023-05-02T10:08:12;99664.47;;;8.73;100.00
57114;BME280;42994;51.606;9.988;2023-05-02T10:10:41;99671.41;;;8.49;100.00
57114;BME280;42994;51.606;9.988;2023-05-02T10:13:12;99677.78;;;8.56;100.00
57114;BME280;42994;51.606;9.988;2023-05-02T10:15:42;99674.25;;;8.48;100.00
57114;BME280;42994;51.606;9.988;2023-05-02T10:18:13;99684.94;;;8.56;100.00
57114;BME280;42994;51.606;9.988;2023-05-02T10:20:42;99680.78;;;8.61;100.00
57114;BME280;42994;51.606;9.988;2023-05-02T10:23:09;99686.31;;;8.34;100.00
57114;BME280;42994;51.606;9.988;2023-05-02T10:25:36;99687.59;;;8.48;100.00
57114;BME280;42994;51.606;9.988;2023-05-02T10:28:04;99683.75;;;8.50;100.00
57114;BME280;42994;51.606;9.988;2023-05-02T10:30:32;99681.94;;;8.59;100.00
57114;BME280;42994;51.606;9.988;2023-05-02T10:33:02;99677.34;;;8.85;100.00
57114;BME280;42994;51.606;9.988;2023-05-02T10:35:31;99677.03;;;9.13;100.00
57114;BME280;42994;51.606;9.988;2023-05-02T10:37:59;99687.06;;;9.19;100.00
57114;BME280;42994;51.606;9.988;2023-05-02T10:40:27;99691.22;;;8.97;100.00
57114;BME280;42994;51.606;9.988;2023-05-02T10:42:54;99691.75;;;9.09;100.00
57114;BME280;42994;51.606;9.988;2023-05-02T10:45:31;99687.09;;;9.11;100.00
57114;BME280;42994;51.606;9.988;2023-05-02T10:48:15;99688.25;;;9.41;100.00
57114;BME280;42994;51.606;9.988;2023-05-02T10:50:45;99694.25;;;9.27;100.00
57114;BME280;42994;51.606;9.988;2023-05-02T10:53:22;99700.81;;;9.33;100.00
57114;BME280;42994;51.606;9.988;2023-05-02T10:56:07;99710.69;;;9.40;100.00
57114;BME280;42994;51.606;9.988;2023-05-02T10:58:34;99705.47;;;9.39;100.00
57114;BME280;42994;51.606;9.988;2023-05-02T11:01:34;99723.69;;;9.43;100.00
57114;BME280;42994;51.606;9.988;2023-05-02T11:04:10;99719.69;;;9.56;100.00
57114;BME280;42994;51.606;9.988;2023-05-02T11:07:16;99726.88;;;9.39;100.00
57114;BME280;42994;51.606;9.988;2023-05-02T11:09:43;99734.59;;;9.50;100.00
57114;BME280;42994;51.606;9.988;2023-05-02T11:12:10;99737.91;;;9.19;100.00
57114;BME280;42994;51.606;9.988;2023-05-02T11:14:43;99736.41;;;9.25;100.00
57114;BME280;42994;51.606;9.988;2023-05-02T11:17:13;99738.91;;;9.27;100.00
57114;BME280;42994;51.606;9.988;2023-05-02T11:22:57;99750.44;;;9.27;100.00
57114;BME280;42994;51.606;9.988;2023-05-02T11:25:33;99760.84;;;9.38;100.00
57114;BME280;42994;51.606;9.988;2023-05-02T11:28:00;99760.81;;;9.30;100.00
57114;BME280;42994;51.606;9.988;2023-05-02T11:30:47;99766.34;;;9.20;100.00
57114;BME280;42994;51.606;9.988;2023-05-02T11:33:16;99757.28;;;9.21;100.00
57114;BME280;42994;51.606;9.988;2023-05-02T11:35:48;99762.81;;;9.28;100.00
57114;BME280;42994;51.606;9.988;2023-05-02T11:38:18;99766.28;;;9.12;100.00
57114;BME280;42994;51.606;9.988;2023-05-02T11:40:54;99771.91;;;8.84;100.00
57114;BME280;42994;51.606;9.988;2023-05-02T11:43:22;99771.50;;;9.14;100.00
57114;BME280;42994;51.606;9.988;2023-05-02T11:45:50;99770.13;;;9.01;100.00
57114;BME280;42994;51.606;9.988;2023-05-02T11:48:18;99766.34;;;9.20;100.00
57114;BME280;42994;51.606;9.988;2023-05-02T11:50:47;99784.22;;;9.28;100.00
57114;BME280;42994;51.606;9.988;2023-05-02T11:53:17;99791.56;;;9.18;100.00
57114;BME280;42994;51.606;9.988;2023-05-02T11:55:48;99787.78;;;8.86;100.00
57114;BME280;42994;51.606;9.988;2023-05-02T11:58:16;99790.31;;;8.88;100.00
57114;BME280;42994;51.606;9.988;2023-05-02T12:00:44;99799.16;;;8.88;100.00
57114;BME280;42994;51.606;9.988;2023-05-02T12:03:26;99797.03;;;9.00;100.00
57114;BME280;42994;51.606;9.988;2023-05-02T12:05:53;99791.34;;;8.95;100.00
57114;BME280;42994;51.606;9.988;2023-05-02T12:08:24;99790.03;;;8.64;100.00
57114;BME280;42994;51.606;9.988;2023-05-02T12:10:52;99798.09;;;8.73;100.00
57114;BME280;42994;51.606;9.988;2023-05-02T12:13:20;99791.28;;;8.87;100.00
57114;BME280;42994;51.606;9.988;2023-05-02T12:15:49;99800.91;;;9.06;100.00
57114;BME280;42994;51.606;9.988;2023-05-02T12:18:16;99790.97;;;8.90;100.00
57114;BME280;42994;51.606;9.988;2023-05-02T12:20:44;99797.22;;;8.64;100.00
57114;BME280;42994;51.606;9.988;2023-05-02T12:23:11;99797.22;;;8.64;100.00
57114;BME280;42994;51.606;9.988;2023-05-02T12:25:40;99800.72;;;8.38;100.00
57114;BME280;42994;51.606;9.988;2023-05-02T12:28:07;99807.25;;;8.70;100.00
57114;BME280;42994;51.606;9.988;2023-05-02T12:30:36;99809.47;;;8.75;100.00
57114;BME280;42994;51.606;9.988;2023-05-02T12:33:04;99804.06;;;8.66;100.00
57114;BME280;42994;51.606;9.988;2023-05-02T12:35:32;99827.25;;;8.58;100.00
57114;BME280;42994;51.606;9.988;2023-05-02T12:38:11;99821.78;;;8.68;100.00
57114;BME280;42994;51.606;9.988;2023-05-02T12:40:45;99825.88;;;8.54;100.00
57114;BME280;42994;51.606;9.988;2023-05-02T12:43:12;99833.81;;;8.63;100.00
57114;BME280;42994;51.606;9.988;2023-05-02T12:45:39;99829.81;;;8.68;100.00
57114;BME280;42994;51.606;9.988;2023-05-02T12:48:19;99847.19;;;8.63;100.00
57114;BME280;42994;51.606;9.988;2023-05-02T12:50:46;99840.41;;;8.51;100.00
57114;BME280;42994;51.606;9.988;2023-05-02T12:53:13;99851.50;;;8.64;100.00
57114;BME280;42994;51.606;9.988;2023-05-02T12:55:41;99852.56;;;8.72;100.00
57114;BME280;42994;51.606;9.988;2023-05-02T12:58:09;99856.97;;;8.55;100.00
57114;BME280;42994;51.606;9.988;2023-05-02T13:00:39;99865.25;;;8.43;100.00
57114;BME280;42994;51.606;9.988;2023-05-02T13:03:06;99869.66;;;8.35;100.00
57114;BME280;42994;51.606;9.988;2023-05-02T13:05:34;99869.72;;;8.43;100.00
57114;BME280;42994;51.606;9.988;2023-05-02T13:08:00;99869.22;;;8.65;100.00
57114;BME280;42994;51.606;9.988;2023-05-02T13:10:27;99879.66;;;8.33;100.00